All Spectrum Aviation - Van Nuys Airport - KVNY

HOME

Condor Squadron KVNY Webcam

Visit our Electronics Store

Condor Squadron Webcam - Van Nuys Airport - KVNY
Picture taken: Sat, 17 Nov 2018 20:05:03 -0800
YouTube Channel!    Latest Timelapse Movie    Full Size Image    Regular Size Image    

2018/11/18 03:51 KVNY 180351Z 00000KT 9SM CLR 16/09 A3002 RMK AO2 SLP164 T01610094

HOME

Condor Squadron KVNY Webcam

Visit our Electronics Store